sensor_id;sensor_type;location;lat;lon;timestamp;P1;durP1;ratioP1;P2;durP2;ratioP2
62149;SDS011;48134;53.586;10.610;2022-09-29T00:02:10;11.90;;;4.47;;
62149;SDS011;48134;53.586;10.610;2022-09-29T00:04:43;6.50;;;3.97;;
62149;SDS011;48134;53.586;10.610;2022-09-29T00:07:12;6.22;;;4.05;;
62149;SDS011;48134;53.586;10.610;2022-09-29T00:09:45;7.65;;;4.13;;
62149;SDS011;48134;53.586;10.610;2022-09-29T00:12:18;5.75;;;4.10;;
62149;SDS011;48134;53.586;10.610;2022-09-29T00:14:47;8.63;;;3.92;;
62149;SDS011;48134;53.586;10.610;2022-09-29T00:17:20;6.45;;;3.72;;
62149;SDS011;48134;53.586;10.610;2022-09-29T00:19:53;6.45;;;3.88;;
62149;SDS011;48134;53.586;10.610;2022-09-29T00:22:28;7.43;;;4.22;;
62149;SDS011;48134;53.586;10.610;2022-09-29T00:25:01;5.20;;;3.60;;
62149;SDS011;48134;53.586;10.610;2022-09-29T00:27:34;6.85;;;4.00;;
62149;SDS011;48134;53.586;10.610;2022-09-29T00:30:07;8.43;;;4.82;;
62149;SDS011;48134;53.586;10.610;2022-09-29T00:32:41;8.68;;;3.95;;
62149;SDS011;48134;53.586;10.610;2022-09-29T00:35:09;6.55;;;4.50;;
62149;SDS011;48134;53.586;10.610;2022-09-29T00:37:44;6.22;;;4.28;;
62149;SDS011;48134;53.586;10.610;2022-09-29T00:40:17;6.55;;;3.88;;
62149;SDS011;48134;53.586;10.610;2022-09-29T00:42:51;7.35;;;3.95;;
62149;SDS011;48134;53.586;10.610;2022-09-29T00:45:24;5.85;;;4.07;;
62149;SDS011;48134;53.586;10.610;2022-09-29T00:48:01;5.53;;;3.70;;
62149;SDS011;48134;53.586;10.610;2022-09-29T00:50:39;6.80;;;4.30;;
62149;SDS011;48134;53.586;10.610;2022-09-29T00:53:16;9.73;;;4.45;;
62149;SDS011;48134;53.586;10.610;2022-09-29T00:55:47;7.93;;;4.22;;
62149;SDS011;48134;53.586;10.610;2022-09-29T01:01:00;5.53;;;3.75;;
62149;SDS011;48134;53.586;10.610;2022-09-29T01:03:34;6.25;;;3.90;;
62149;SDS011;48134;53.586;10.610;2022-09-29T01:06:11;7.70;;;4.55;;
62149;SDS011;48134;53.586;10.610;2022-09-29T01:08:50;7.13;;;3.83;;
62149;SDS011;48134;53.586;10.610;2022-09-29T01:11:29;7.80;;;4.03;;
62149;SDS011;48134;53.586;10.610;2022-09-29T01:13:57;5.57;;;3.70;;
62149;SDS011;48134;53.586;10.610;2022-09-29T01:16:34;6.38;;;4.28;;
62149;SDS011;48134;53.586;10.610;2022-09-29T01:19:11;5.70;;;3.97;;
62149;SDS011;48134;53.586;10.610;2022-09-29T01:21:50;5.25;;;3.85;;
62149;SDS011;48134;53.586;10.610;2022-09-29T01:24:46;5.88;;;3.97;;
62149;SDS011;48134;53.586;10.610;2022-09-29T01:27:43;6.43;;;3.90;;
62149;SDS011;48134;53.586;10.610;2022-09-29T01:30:43;5.60;;;3.85;;
62149;SDS011;48134;53.586;10.610;2022-09-29T01:33:33;6.25;;;3.97;;
62149;SDS011;48134;53.586;10.610;2022-09-29T01:36:08;6.18;;;4.10;;
62149;SDS011;48134;53.586;10.610;2022-09-29T01:38:53;6.18;;;4.13;;
62149;SDS011;48134;53.586;10.610;2022-09-29T01:41:39;8.07;;;4.28;;
62149;SDS011;48134;53.586;10.610;2022-09-29T01:44:17;7.55;;;4.45;;
62149;SDS011;48134;53.586;10.610;2022-09-29T01:46:56;7.15;;;4.32;;
62149;SDS011;48134;53.586;10.610;2022-09-29T01:49:30;6.95;;;4.18;;
62149;SDS011;48134;53.586;10.610;2022-09-29T01:52:07;6.60;;;4.22;;
62149;SDS011;48134;53.586;10.610;2022-09-29T01:54:43;10.57;;;4.70;;
62149;SDS011;48134;53.586;10.610;2022-09-29T01:57:20;7.30;;;4.45;;
62149;SDS011;48134;53.586;10.610;2022-09-29T02:00:00;7.65;;;4.40;;
62149;SDS011;48134;53.586;10.610;2022-09-29T02:02:43;8.13;;;4.13;;
62149;SDS011;48134;53.586;10.610;2022-09-29T02:05:20;6.93;;;4.28;;
62149;SDS011;48134;53.586;10.610;2022-09-29T02:07:54;5.65;;;4.30;;
62149;SDS011;48134;53.586;10.610;2022-09-29T02:10:35;6.30;;;4.43;;
62149;SDS011;48134;53.586;10.610;2022-09-29T02:15:47;7.50;;;4.15;;
62149;SDS011;48134;53.586;10.610;2022-09-29T02:18:27;7.55;;;4.47;;
62149;SDS011;48134;53.586;10.610;2022-09-29T02:21:04;6.88;;;4.40;;
62149;SDS011;48134;53.586;10.610;2022-09-29T02:23:33;6.70;;;4.38;;
62149;SDS011;48134;53.586;10.610;2022-09-29T02:26:06;6.95;;;4.10;;
62149;SDS011;48134;53.586;10.610;2022-09-29T02:28:41;6.72;;;4.43;;
62149;SDS011;48134;53.586;10.610;2022-09-29T02:31:10;10.00;;;4.05;;
62149;SDS011;48134;53.586;10.610;2022-09-29T02:33:45;6.93;;;4.32;;
62149;SDS011;48134;53.586;10.610;2022-09-29T02:36:21;6.55;;;4.53;;
62149;SDS011;48134;53.586;10.610;2022-09-29T02:39:04;6.18;;;4.13;;
62149;SDS011;48134;53.586;10.610;2022-09-29T02:41:48;6.72;;;4.30;;
62149;SDS011;48134;53.586;10.610;2022-09-29T02:44:31;8.88;;;4.70;;
62149;SDS011;48134;53.586;10.610;2022-09-29T02:47:15;5.40;;;3.92;;
62149;SDS011;48134;53.586;10.610;2022-09-29T02:50:12;6.70;;;4.50;;
62149;SDS011;48134;53.586;10.610;2022-09-29T02:52:51;6.28;;;4.45;;
62149;SDS011;48134;53.586;10.610;2022-09-29T02:55:31;5.75;;;4.30;;
62149;SDS011;48134;53.586;10.610;2022-09-29T02:58:10;5.88;;;4.03;;
62149;SDS011;48134;53.586;10.610;2022-09-29T03:00:47;7.50;;;4.75;;
62149;SDS011;48134;53.586;10.610;2022-09-29T03:03:20;5.88;;;3.85;;
62149;SDS011;48134;53.586;10.610;2022-09-29T03:05:55;6.22;;;4.18;;
62149;SDS011;48134;53.586;10.610;2022-09-29T03:08:28;5.85;;;4.43;;
62149;SDS011;48134;53.586;10.610;2022-09-29T03:11:03;6.78;;;3.95;;
62149;SDS011;48134;53.586;10.610;2022-09-29T03:13:31;7.57;;;4.50;;
62149;SDS011;48134;53.586;10.610;2022-09-29T03:16:04;6.85;;;4.40;;
62149;SDS011;48134;53.586;10.610;2022-09-29T03:18:32;7.45;;;4.50;;
62149;SDS011;48134;53.586;10.610;2022-09-29T03:21:01;5.13;;;3.88;;
62149;SDS011;48134;53.586;10.610;2022-09-29T03:23:35;7.70;;;4.22;;
62149;SDS011;48134;53.586;10.610;2022-09-29T03:26:03;4.85;;;3.65;;
62149;SDS011;48134;53.586;10.610;2022-09-29T03:28:36;7.32;;;4.25;;
62149;SDS011;48134;53.586;10.610;2022-09-29T03:31:09;5.82;;;4.20;;
62149;SDS011;48134;53.586;10.610;2022-09-29T03:33:43;4.50;;;3.22;;
62149;SDS011;48134;53.586;10.610;2022-09-29T03:36:12;5.85;;;3.75;;
62149;SDS011;48134;53.586;10.610;2022-09-29T03:38:40;4.97;;;3.38;;
62149;SDS011;48134;53.586;10.610;2022-09-29T03:41:14;5.25;;;3.92;;
62149;SDS011;48134;53.586;10.610;2022-09-29T03:43:47;6.07;;;3.72;;
62149;SDS011;48134;53.586;10.610;2022-09-29T03:46:20;6.28;;;3.83;;
62149;SDS011;48134;53.586;10.610;2022-09-29T03:48:53;6.60;;;4.18;;
62149;SDS011;48134;53.586;10.610;2022-09-29T03:51:28;5.05;;;3.33;;
62149;SDS011;48134;53.586;10.610;2022-09-29T03:54:01;7.82;;;4.05;;
62149;SDS011;48134;53.586;10.610;2022-09-29T03:56:34;5.88;;;3.85;;
62149;SDS011;48134;53.586;10.610;2022-09-29T03:59:03;7.97;;;4.65;;
62149;SDS011;48134;53.586;10.610;2022-09-29T04:01:39;8.85;;;4.05;;
62149;SDS011;48134;53.586;10.610;2022-09-29T04:04:07;6.63;;;3.92;;
62149;SDS011;48134;53.586;10.610;2022-09-29T04:06:42;7.95;;;4.10;;
62149;SDS011;48134;53.586;10.610;2022-09-29T04:09:15;4.95;;;3.65;;
62149;SDS011;48134;53.586;10.610;2022-09-29T04:11:43;11.73;;;4.50;;
62149;SDS011;48134;53.586;10.610;2022-09-29T04:14:16;6.95;;;4.30;;
62149;SDS011;48134;53.586;10.610;2022-09-29T04:16:49;6.00;;;3.83;;
62149;SDS011;48134;53.586;10.610;2022-09-29T04:19:23;6.80;;;3.80;;
62149;SDS011;48134;53.586;10.610;2022-09-29T04:21:57;6.32;;;3.92;;
62149;SDS011;48134;53.586;10.610;2022-09-29T04:24:25;6.38;;;4.20;;
62149;SDS011;48134;53.586;10.610;2022-09-29T04:26:58;6.18;;;4.32;;
62149;SDS011;48134;53.586;10.610;2022-09-29T04:29:32;7.28;;;4.20;;
62149;SDS011;48134;53.586;10.610;2022-09-29T04:32:05;7.75;;;3.90;;
62149;SDS011;48134;53.586;10.610;2022-09-29T04:34:39;5.95;;;4.05;;
62149;SDS011;48134;53.586;10.610;2022-09-29T04:37:13;5.90;;;4.20;;
62149;SDS011;48134;53.586;10.610;2022-09-29T04:39:46;6.28;;;3.97;;
62149;SDS011;48134;53.586;10.610;2022-09-29T04:42:20;7.55;;;4.50;;
62149;SDS011;48134;53.586;10.610;2022-09-29T04:44:53;7.85;;;4.13;;
62149;SDS011;48134;53.586;10.610;2022-09-29T04:47:26;7.72;;;5.10;;
62149;SDS011;48134;53.586;10.610;2022-09-29T04:49:59;7.00;;;4.47;;
62149;SDS011;48134;53.586;10.610;2022-09-29T04:52:34;6.88;;;4.43;;
62149;SDS011;48134;53.586;10.610;2022-09-29T04:55:08;6.90;;;4.68;;
62149;SDS011;48134;53.586;10.610;2022-09-29T04:57:38;7.30;;;4.50;;
62149;SDS011;48134;53.586;10.610;2022-09-29T05:00:06;7.65;;;4.60;;
62149;SDS011;48134;53.586;10.610;2022-09-29T05:02:40;9.98;;;5.22;;
62149;SDS011;48134;53.586;10.610;2022-09-29T05:05:14;6.68;;;4.22;;
62149;SDS011;48134;53.586;10.610;2022-09-29T05:07:48;7.18;;;4.93;;
62149;SDS011;48134;53.586;10.610;2022-09-29T05:10:21;7.55;;;4.88;;
62149;SDS011;48134;53.586;10.610;2022-09-29T05:12:55;6.03;;;4.28;;
62149;SDS011;48134;53.586;10.610;2022-09-29T05:15:28;6.50;;;4.32;;
62149;SDS011;48134;53.586;10.610;2022-09-29T05:18:01;12.57;;;4.60;;
62149;SDS011;48134;53.586;10.610;2022-09-29T05:20:29;6.40;;;4.32;;
62149;SDS011;48134;53.586;10.610;2022-09-29T05:23:16;7.30;;;4.90;;
62149;SDS011;48134;53.586;10.610;2022-09-29T05:26:01;6.43;;;4.57;;
62149;SDS011;48134;53.586;10.610;2022-09-29T05:28:29;9.35;;;5.03;;
62149;SDS011;48134;53.586;10.610;2022-09-29T05:31:03;12.38;;;4.85;;
62149;SDS011;48134;53.586;10.610;2022-09-29T05:33:37;9.00;;;5.03;;
62149;SDS011;48134;53.586;10.610;2022-09-29T05:36:11;8.40;;;5.35;;
62149;SDS011;48134;53.586;10.610;2022-09-29T05:38:46;9.23;;;4.55;;
62149;SDS011;48134;53.586;10.610;2022-09-29T05:41:19;7.15;;;4.60;;
62149;SDS011;48134;53.586;10.610;2022-09-29T05:43:54;6.75;;;5.25;;
62149;SDS011;48134;53.586;10.610;2022-09-29T05:46:27;6.78;;;4.97;;
62149;SDS011;48134;53.586;10.610;2022-09-29T05:49:00;6.70;;;4.60;;
62149;SDS011;48134;53.586;10.610;2022-09-29T05:51:29;7.80;;;5.38;;
62149;SDS011;48134;53.586;10.610;2022-09-29T05:54:04;7.10;;;4.72;;
62149;SDS011;48134;53.586;10.610;2022-09-29T05:56:37;6.70;;;4.63;;
62149;SDS011;48134;53.586;10.610;2022-09-29T05:59:11;8.20;;;4.68;;
62149;SDS011;48134;53.586;10.610;2022-09-29T06:01:39;7.60;;;4.47;;
62149;SDS011;48134;53.586;10.610;2022-09-29T06:04:12;6.53;;;5.03;;
62149;SDS011;48134;53.586;10.610;2022-09-29T06:06:45;6.70;;;4.93;;
62149;SDS011;48134;53.586;10.610;2022-09-29T06:09:20;6.88;;;5.03;;
62149;SDS011;48134;53.586;10.610;2022-09-29T06:11:48;7.90;;;5.57;;
62149;SDS011;48134;53.586;10.610;2022-09-29T06:14:21;7.85;;;5.32;;
62149;SDS011;48134;53.586;10.610;2022-09-29T06:16:54;7.47;;;5.28;;
62149;SDS011;48134;53.586;10.610;2022-09-29T06:19:27;6.28;;;4.88;;
62149;SDS011;48134;53.586;10.610;2022-09-29T06:22:01;6.50;;;5.05;;
62149;SDS011;48134;53.586;10.610;2022-09-29T06:24:35;8.85;;;5.93;;
62149;SDS011;48134;53.586;10.610;2022-09-29T06:27:08;7.28;;;5.50;;
62149;SDS011;48134;53.586;10.610;2022-09-29T06:29:41;7.95;;;5.85;;
62149;SDS011;48134;53.586;10.610;2022-09-29T06:32:14;7.55;;;5.28;;
62149;SDS011;48134;53.586;10.610;2022-09-29T06:34:43;7.32;;;5.43;;
62149;SDS011;48134;53.586;10.610;2022-09-29T06:37:34;9.15;;;5.43;;
62149;SDS011;48134;53.586;10.610;2022-09-29T06:40:09;6.43;;;5.00;;
62149;SDS011;48134;53.586;10.610;2022-09-29T06:42:42;11.45;;;6.07;;
62149;SDS011;48134;53.586;10.610;2022-09-29T06:45:16;7.20;;;5.38;;
62149;SDS011;48134;53.586;10.610;2022-09-29T06:47:50;7.80;;;5.60;;
62149;SDS011;48134;53.586;10.610;2022-09-29T06:50:29;8.20;;;5.60;;
62149;SDS011;48134;53.586;10.610;2022-09-29T06:53:02;7.72;;;5.85;;
62149;SDS011;48134;53.586;10.610;2022-09-29T06:55:37;8.25;;;6.43;;
62149;SDS011;48134;53.586;10.610;2022-09-29T06:58:05;8.07;;;6.28;;
62149;SDS011;48134;53.586;10.610;2022-09-29T07:00:36;8.95;;;6.30;;
62149;SDS011;48134;53.586;10.610;2022-09-29T07:03:10;7.90;;;6.03;;
62149;SDS011;48134;53.586;10.610;2022-09-29T07:05:43;10.57;;;6.40;;
62149;SDS011;48134;53.586;10.610;2022-09-29T07:08:16;8.25;;;6.45;;
62149;SDS011;48134;53.586;10.610;2022-09-29T07:10:51;8.13;;;6.45;;
62149;SDS011;48134;53.586;10.610;2022-09-29T07:13:24;8.98;;;6.40;;
62149;SDS011;48134;53.586;10.610;2022-09-29T07:16:02;10.27;;;6.60;;
62149;SDS011;48134;53.586;10.610;2022-09-29T07:18:39;9.75;;;6.78;;
62149;SDS011;48134;53.586;10.610;2022-09-29T07:21:14;8.50;;;7.00;;
62149;SDS011;48134;53.586;10.610;2022-09-29T07:23:43;8.73;;;7.07;;
62149;SDS011;48134;53.586;10.610;2022-09-29T07:26:19;9.32;;;6.38;;
62149;SDS011;48134;53.586;10.610;2022-09-29T07:28:52;9.40;;;7.00;;
62149;SDS011;48134;53.586;10.610;2022-09-29T07:31:26;8.60;;;6.95;;
62149;SDS011;48134;53.586;10.610;2022-09-29T07:33:55;10.85;;;7.60;;
62149;SDS011;48134;53.586;10.610;2022-09-29T07:36:28;8.48;;;7.22;;
62149;SDS011;48134;53.586;10.610;2022-09-29T07:39:01;11.23;;;7.28;;
62149;SDS011;48134;53.586;10.610;2022-09-29T07:41:35;9.85;;;7.15;;
62149;SDS011;48134;53.586;10.610;2022-09-29T07:44:09;9.02;;;7.05;;
62149;SDS011;48134;53.586;10.610;2022-09-29T07:46:42;8.18;;;6.43;;
62149;SDS011;48134;53.586;10.610;2022-09-29T07:49:15;9.57;;;7.53;;
62149;SDS011;48134;53.586;10.610;2022-09-29T07:51:48;10.75;;;8.45;;
62149;SDS011;48134;53.586;10.610;2022-09-29T07:54:23;8.40;;;6.75;;
62149;SDS011;48134;53.586;10.610;2022-09-29T07:56:52;8.85;;;7.07;;
62149;SDS011;48134;53.586;10.610;2022-09-29T07:59:25;8.73;;;7.45;;
62149;SDS011;48134;53.586;10.610;2022-09-29T08:01:59;8.55;;;6.88;;
62149;SDS011;48134;53.586;10.610;2022-09-29T08:04:33;9.05;;;7.13;;
62149;SDS011;48134;53.586;10.610;2022-09-29T08:07:06;8.68;;;7.40;;
62149;SDS011;48134;53.586;10.610;2022-09-29T08:09:39;8.52;;;6.93;;
62149;SDS011;48134;53.586;10.610;2022-09-29T08:12:14;10.18;;;7.10;;
62149;SDS011;48134;53.586;10.610;2022-09-29T08:14:42;10.43;;;7.18;;
62149;SDS011;48134;53.586;10.610;2022-09-29T08:17:15;7.38;;;6.07;;
62149;SDS011;48134;53.586;10.610;2022-09-29T08:19:48;7.60;;;6.53;;
62149;SDS011;48134;53.586;10.610;2022-09-29T08:22:21;7.22;;;6.13;;
62149;SDS011;48134;53.586;10.610;2022-09-29T08:24:50;10.90;;;6.28;;
62149;SDS011;48134;53.586;10.610;2022-09-29T08:27:26;9.82;;;6.35;;
62149;SDS011;48134;53.586;10.610;2022-09-29T08:30:00;8.32;;;6.05;;
62149;SDS011;48134;53.586;10.610;2022-09-29T08:32:33;7.50;;;5.32;;
62149;SDS011;48134;53.586;10.610;2022-09-29T08:35:01;7.68;;;5.68;;
62149;SDS011;48134;53.586;10.610;2022-09-29T08:37:34;7.53;;;5.72;;
62149;SDS011;48134;53.586;10.610;2022-09-29T08:40:07;8.85;;;5.47;;
62149;SDS011;48134;53.586;10.610;2022-09-29T08:42:44;7.43;;;5.55;;
62149;SDS011;48134;53.586;10.610;2022-09-29T08:45:22;9.23;;;6.03;;
62149;SDS011;48134;53.586;10.610;2022-09-29T08:48:03;8.82;;;5.60;;
62149;SDS011;48134;53.586;10.610;2022-09-29T08:50:41;6.70;;;5.00;;
62149;SDS011;48134;53.586;10.610;2022-09-29T08:53:18;7.82;;;5.72;;
62149;SDS011;48134;53.586;10.610;2022-09-29T08:55:55;6.65;;;4.95;;
62149;SDS011;48134;53.586;10.610;2022-09-29T08:58:32;9.25;;;5.72;;
62149;SDS011;48134;53.586;10.610;2022-09-29T09:01:09;7.78;;;5.45;;
62149;SDS011;48134;53.586;10.610;2022-09-29T09:04:05;8.75;;;5.38;;
62149;SDS011;48134;53.586;10.610;2022-09-29T09:06:47;8.05;;;5.28;;
62149;SDS011;48134;53.586;10.610;2022-09-29T09:09:36;7.70;;;4.63;;
62149;SDS011;48134;53.586;10.610;2022-09-29T09:12:41;8.00;;;5.50;;
62149;SDS011;48134;53.586;10.610;2022-09-29T09:15:46;7.15;;;4.78;;
62149;SDS011;48134;53.586;10.610;2022-09-29T09:18:36;7.30;;;4.55;;
62149;SDS011;48134;53.586;10.610;2022-09-29T09:21:18;8.02;;;4.55;;
62149;SDS011;48134;53.586;10.610;2022-09-29T09:24:00;6.70;;;4.28;;
62149;SDS011;48134;53.586;10.610;2022-09-29T09:26:38;6.68;;;4.07;;
62149;SDS011;48134;53.586;10.610;2022-09-29T09:29:16;7.28;;;4.40;;
62149;SDS011;48134;53.586;10.610;2022-09-29T09:31:56;8.00;;;4.70;;
62149;SDS011;48134;53.586;10.610;2022-09-29T09:34:33;6.80;;;4.07;;
62149;SDS011;48134;53.586;10.610;2022-09-29T09:37:15;6.85;;;4.15;;
62149;SDS011;48134;53.586;10.610;2022-09-29T09:39:48;7.00;;;4.40;;
62149;SDS011;48134;53.586;10.610;2022-09-29T09:42:29;7.50;;;4.25;;
62149;SDS011;48134;53.586;10.610;2022-09-29T09:45:03;6.45;;;3.70;;
62149;SDS011;48134;53.586;10.610;2022-09-29T09:47:45;6.93;;;4.00;;
62149;SDS011;48134;53.586;10.610;2022-09-29T09:50:21;8.05;;;4.43;;
62149;SDS011;48134;53.586;10.610;2022-09-29T09:52:57;6.88;;;4.10;;
62149;SDS011;48134;53.586;10.610;2022-09-29T09:55:34;8.05;;;4.57;;
62149;SDS011;48134;53.586;10.610;2022-09-29T10:01:16;8.35;;;4.57;;
62149;SDS011;48134;53.586;10.610;2022-09-29T10:03:50;7.45;;;4.25;;
62149;SDS011;48134;53.586;10.610;2022-09-29T10:06:24;7.30;;;4.63;;
62149;SDS011;48134;53.586;10.610;2022-09-29T10:08:57;10.18;;;4.90;;
62149;SDS011;48134;53.586;10.610;2022-09-29T10:11:30;8.93;;;5.35;;
62149;SDS011;48134;53.586;10.610;2022-09-29T10:14:12;7.95;;;5.18;;
62149;SDS011;48134;53.586;10.610;2022-09-29T10:16:43;6.35;;;4.25;;
62149;SDS011;48134;53.586;10.610;2022-09-29T10:19:22;7.85;;;4.85;;
62149;SDS011;48134;53.586;10.610;2022-09-29T11:34:41;5.55;;;3.17;;
62149;SDS011;48134;53.586;10.610;2022-09-29T11:37:23;6.00;;;3.13;;
62149;SDS011;48134;53.586;10.610;2022-09-29T11:40:09;5.90;;;3.40;;
62149;SDS011;48134;53.586;10.610;2022-09-29T11:42:48;6.78;;;3.40;;
62149;SDS011;48134;53.586;10.610;2022-09-29T11:45:34;8.70;;;4.25;;
62149;SDS011;48134;53.586;10.610;2022-09-29T11:48:22;6.03;;;3.25;;
62149;SDS011;48134;53.586;10.610;2022-09-29T11:51:27;6.93;;;3.92;;
62149;SDS011;48134;53.586;10.610;2022-09-29T11:54:14;8.95;;;4.75;;
62149;SDS011;48134;53.586;10.610;2022-09-29T11:57:03;8.88;;;4.55;;
62149;SDS011;48134;53.586;10.610;2022-09-29T11:59:41;7.53;;;4.35;;
62149;SDS011;48134;53.586;10.610;2022-09-29T12:05:27;9.15;;;5.00;;
62149;SDS011;48134;53.586;10.610;2022-09-29T12:08:13;12.05;;;5.32;;
62149;SDS011;48134;53.586;10.610;2022-09-29T12:10:53;10.40;;;5.20;;
62149;SDS011;48134;53.586;10.610;2022-09-29T12:13:34;11.48;;;5.45;;
62149;SDS011;48134;53.586;10.610;2022-09-29T12:16:16;9.63;;;5.22;;
62149;SDS011;48134;53.586;10.610;2022-09-29T12:18:55;9.02;;;5.07;;
62149;SDS011;48134;53.586;10.610;2022-09-29T12:21:32;8.15;;;4.78;;
62149;SDS011;48134;53.586;10.610;2022-09-29T12:24:10;8.45;;;4.95;;
62149;SDS011;48134;53.586;10.610;2022-09-29T12:26:48;8.00;;;4.65;;
62149;SDS011;48134;53.586;10.610;2022-09-29T12:29:28;9.13;;;5.22;;
62149;SDS011;48134;53.586;10.610;2022-09-29T12:32:07;7.88;;;4.95;;
62149;SDS011;48134;53.586;10.610;2022-09-29T12:34:47;9.10;;;4.93;;
62149;SDS011;48134;53.586;10.610;2022-09-29T12:37:24;8.48;;;5.20;;
62149;SDS011;48134;53.586;10.610;2022-09-29T12:39:59;8.45;;;4.72;;
62149;SDS011;48134;53.586;10.610;2022-09-29T12:42:39;8.82;;;5.20;;
62149;SDS011;48134;53.586;10.610;2022-09-29T12:45:23;10.38;;;5.15;;
62149;SDS011;48134;53.586;10.610;2022-09-29T12:48:05;11.57;;;5.22;;
62149;SDS011;48134;53.586;10.610;2022-09-29T12:50:50;10.90;;;4.80;;
62149;SDS011;48134;53.586;10.610;2022-09-29T12:53:26;8.27;;;4.95;;
62149;SDS011;48134;53.586;10.610;2022-09-29T12:56:06;10.30;;;4.88;;
62149;SDS011;48134;53.586;10.610;2022-09-29T12:58:39;9.13;;;4.72;;
62149;SDS011;48134;53.586;10.610;2022-09-29T13:01:21;10.82;;;4.78;;
62149;SDS011;48134;53.586;10.610;2022-09-29T13:04:05;8.82;;;4.22;;
62149;SDS011;48134;53.586;10.610;2022-09-29T13:06:59;9.35;;;4.93;;
62149;SDS011;48134;53.586;10.610;2022-09-29T13:10:02;12.13;;;4.25;;
62149;SDS011;48134;53.586;10.610;2022-09-29T13:15:56;8.75;;;3.78;;
62149;SDS011;48134;53.586;10.610;2022-09-29T13:18:49;8.38;;;4.28;;
62149;SDS011;48134;53.586;10.610;2022-09-29T13:21:31;8.43;;;3.72;;
62149;SDS011;48134;53.586;10.610;2022-09-29T13:24:21;8.25;;;3.95;;
62149;SDS011;48134;53.586;10.610;2022-09-29T13:27:08;7.50;;;3.80;;
62149;SDS011;48134;53.586;10.610;2022-09-29T13:29:52;7.68;;;3.80;;
62149;SDS011;48134;53.586;10.610;2022-09-29T13:32:28;6.78;;;3.60;;
62149;SDS011;48134;53.586;10.610;2022-09-29T13:35:00;10.55;;;4.63;;
62149;SDS011;48134;53.586;10.610;2022-09-29T13:37:41;6.53;;;3.67;;
62149;SDS011;48134;53.586;10.610;2022-09-29T13:40:20;6.80;;;3.58;;
62149;SDS011;48134;53.586;10.610;2022-09-29T13:42:55;7.18;;;3.72;;
62149;SDS011;48134;53.586;10.610;2022-09-29T13:48:33;8.38;;;4.00;;
62149;SDS011;48134;53.586;10.610;2022-09-29T13:51:23;7.07;;;3.83;;
62149;SDS011;48134;53.586;10.610;2022-09-29T13:57:16;7.43;;;4.00;;
62149;SDS011;48134;53.586;10.610;2022-09-29T14:00:03;7.38;;;3.97;;
62149;SDS011;48134;53.586;10.610;2022-09-29T14:02:48;7.47;;;3.80;;
62149;SDS011;48134;53.586;10.610;2022-09-29T14:05:38;8.38;;;3.95;;
62149;SDS011;48134;53.586;10.610;2022-09-29T14:08:27;7.05;;;3.85;;
62149;SDS011;48134;53.586;10.610;2022-09-29T14:11:13;8.10;;;3.80;;
62149;SDS011;48134;53.586;10.610;2022-09-29T14:13:53;12.02;;;4.25;;
62149;SDS011;48134;53.586;10.610;2022-09-29T14:16:33;8.02;;;4.10;;
62149;SDS011;48134;53.586;10.610;2022-09-29T14:19:15;7.90;;;4.00;;
62149;SDS011;48134;53.586;10.610;2022-09-29T14:21:58;5.82;;;3.35;;
62149;SDS011;48134;53.586;10.610;2022-09-29T14:24:43;8.52;;;4.13;;
62149;SDS011;48134;53.586;10.610;2022-09-29T14:27:26;11.13;;;4.88;;
62149;SDS011;48134;53.586;10.610;2022-09-29T14:30:12;9.27;;;4.53;;
62149;SDS011;48134;53.586;10.610;2022-09-29T14:32:50;12.55;;;5.00;;
62149;SDS011;48134;53.586;10.610;2022-09-29T14:35:27;8.82;;;4.82;;
62149;SDS011;48134;53.586;10.610;2022-09-29T14:38:03;10.70;;;5.18;;
62149;SDS011;48134;53.586;10.610;2022-09-29T14:40:36;10.57;;;5.70;;
62149;SDS011;48134;53.586;10.610;2022-09-29T14:43:13;10.10;;;5.75;;
62149;SDS011;48134;53.586;10.610;2022-09-29T14:52:23;8.32;;;4.68;;
62149;SDS011;48134;53.586;10.610;2022-09-29T14:55:02;9.35;;;5.10;;
62149;SDS011;48134;53.586;10.610;2022-09-29T14:57:46;10.15;;;5.38;;
62149;SDS011;48134;53.586;10.610;2022-09-29T15:00:34;12.75;;;5.85;;
62149;SDS011;48134;53.586;10.610;2022-09-29T15:03:17;8.63;;;5.32;;
62149;SDS011;48134;53.586;10.610;2022-09-29T15:06:01;9.88;;;5.70;;
62149;SDS011;48134;53.586;10.610;2022-09-29T15:08:37;9.15;;;5.13;;
62149;SDS011;48134;53.586;10.610;2022-09-29T15:11:22;7.95;;;5.13;;
62149;SDS011;48134;53.586;10.610;2022-09-29T15:13:58;11.45;;;5.50;;
62149;SDS011;48134;53.586;10.610;2022-09-29T15:16:35;9.68;;;5.15;;
62149;SDS011;48134;53.586;10.610;2022-09-29T15:19:31;8.38;;;4.97;;
62149;SDS011;48134;53.586;10.610;2022-09-29T15:22:17;8.10;;;5.22;;
62149;SDS011;48134;53.586;10.610;2022-09-29T15:25:16;8.77;;;5.75;;
62149;SDS011;48134;53.586;10.610;2022-09-29T15:27:52;9.57;;;6.18;;
62149;SDS011;48134;53.586;10.610;2022-09-29T15:30:28;10.55;;;5.60;;
62149;SDS011;48134;53.586;10.610;2022-09-29T15:33:05;10.18;;;6.43;;
62149;SDS011;48134;53.586;10.610;2022-09-29T15:35:49;10.43;;;6.43;;
62149;SDS011;48134;53.586;10.610;2022-09-29T15:38:28;9.27;;;6.18;;
62149;SDS011;48134;53.586;10.610;2022-09-29T15:41:01;12.02;;;7.05;;
62149;SDS011;48134;53.586;10.610;2022-09-29T15:43:38;9.07;;;5.57;;
62149;SDS011;48134;53.586;10.610;2022-09-29T15:46:14;9.43;;;5.05;;
62149;SDS011;48134;53.586;10.610;2022-09-29T15:51:53;7.03;;;4.32;;
62149;SDS011;48134;53.586;10.610;2022-09-29T15:54:30;7.57;;;4.55;;
62149;SDS011;48134;53.586;10.610;2022-09-29T15:57:00;8.90;;;4.65;;
62149;SDS011;48134;53.586;10.610;2022-09-29T15:59:52;10.73;;;4.70;;
62149;SDS011;48134;53.586;10.610;2022-09-29T16:02:28;6.65;;;4.35;;
62149;SDS011;48134;53.586;10.610;2022-09-29T16:05:03;6.28;;;3.63;;
62149;SDS011;48134;53.586;10.610;2022-09-29T16:07:40;8.27;;;4.15;;
62149;SDS011;48134;53.586;10.610;2022-09-29T16:10:21;6.45;;;4.25;;
62149;SDS011;48134;53.586;10.610;2022-09-29T16:12:59;7.03;;;3.97;;
62149;SDS011;48134;53.586;10.610;2022-09-29T16:15:35;9.02;;;5.55;;
62149;SDS011;48134;53.586;10.610;2022-09-29T16:18:19;7.13;;;4.57;;
62149;SDS011;48134;53.586;10.610;2022-09-29T16:20:50;7.55;;;3.88;;
62149;SDS011;48134;53.586;10.610;2022-09-29T16:23:21;8.25;;;4.60;;
62149;SDS011;48134;53.586;10.610;2022-09-29T16:26:07;7.95;;;4.68;;
62149;SDS011;48134;53.586;10.610;2022-09-29T16:29:01;8.30;;;3.97;;
62149;SDS011;48134;53.586;10.610;2022-09-29T16:31:48;4.93;;;3.38;;
62149;SDS011;48134;53.586;10.610;2022-09-29T16:34:25;6.03;;;3.58;;
62149;SDS011;48134;53.586;10.610;2022-09-29T16:37:03;5.00;;;3.28;;
62149;SDS011;48134;53.586;10.610;2022-09-29T16:39:38;6.20;;;3.30;;
62149;SDS011;48134;53.586;10.610;2022-09-29T16:42:16;5.00;;;3.22;;
62149;SDS011;48134;53.586;10.610;2022-09-29T16:44:51;4.72;;;3.00;;
62149;SDS011;48134;53.586;10.610;2022-09-29T16:47:22;4.00;;;2.97;;
62149;SDS011;48134;53.586;10.610;2022-09-29T16:49:59;5.37;;;2.97;;
62149;SDS011;48134;53.586;10.610;2022-09-29T16:52:39;4.03;;;2.90;;
62149;SDS011;48134;53.586;10.610;2022-09-29T16:55:16;4.75;;;2.88;;
62149;SDS011;48134;53.586;10.610;2022-09-29T16:57:52;4.47;;;2.85;;
62149;SDS011;48134;53.586;10.610;2022-09-29T17:00:27;5.30;;;3.20;;
62149;SDS011;48134;53.586;10.610;2022-09-29T17:03:00;5.22;;;2.90;;
62149;SDS011;48134;53.586;10.610;2022-09-29T17:05:38;4.90;;;3.05;;
62149;SDS011;48134;53.586;10.610;2022-09-29T17:08:15;4.60;;;3.10;;
62149;SDS011;48134;53.586;10.610;2022-09-29T17:10:53;5.70;;;3.10;;
62149;SDS011;48134;53.586;10.610;2022-09-29T17:13:23;5.72;;;3.13;;
62149;SDS011;48134;53.586;10.610;2022-09-29T17:15:57;6.05;;;3.35;;
